Time,TemperatureF,DewpointF,PressureIn,WindDirection,WindDirectionDegrees,WindSpeedMPH,WindSpeedGustMPH,Humidity,HourlyPrecipIn,Conditions,Clouds,dailyrainin,SoftwareType,DateUTC
2013-04-23 00:03:00,46.0,33.0,30.32,East,90,0.0,1.0,61,0.00,,,0.00,,2013-04-23 04:03:00,
2013-04-23 00:12:00,46.0,33.0,30.32,East,90,0.0,1.0,61,0.00,,,0.00,,2013-04-23 04:12:00,
2013-04-23 00:23:00,47.0,35.0,30.32,ENE,60,2.0,4.0,63,0.00,,,0.00,,2013-04-23 04:23:00,
2013-04-23 00:33:00,48.0,35.0,30.32,East,79,3.0,5.0,61,0.00,,,0.00,,2013-04-23 04:33:00,
2013-04-23 00:43:00,48.0,35.0,30.32,East,79,3.0,5.0,61,0.00,,,0.00,,2013-04-23 04:43:00,
2013-04-23 00:53:00,49.0,35.0,30.32,ENE,78,2.0,5.0,59,0.00,,,0.00,,2013-04-23 04:53:00,
2013-04-23 01:02:00,49.0,36.0,30.32,ENE,72,1.0,2.0,60,0.00,,,0.00,,2013-04-23 05:02:00,
2013-04-23 01:12:00,49.0,36.0,30.32,ENE,72,1.0,2.0,60,0.00,,,0.00,,2013-04-23 05:12:00,
2013-04-23 01:22:00,48.0,36.0,30.32,ENE,65,1.0,3.0,63,0.00,,,0.00,,2013-04-23 05:22:00,
2013-04-23 01:32:00,47.0,36.0,30.32,NE,37,0.0,2.0,65,0.00,,,0.00,,2013-04-23 05:32:00,
2013-04-23 01:42:00,47.0,36.0,30.32,NE,37,0.0,2.0,65,0.00,,,0.00,,2013-04-23 05:42:00,
2013-04-23 01:52:00,47.0,37.0,30.32,NE,34,0.0,0.0,67,0.00,,,0.00,,2013-04-23 05:52:00,
2013-04-23 02:02:00,46.0,37.0,30.31,NNE,32,0.0,0.0,72,0.00,,,0.00,,2013-04-23 06:02:00,
2013-04-23 02:12:00,46.0,37.0,30.31,NNE,32,0.0,0.0,72,0.00,,,0.00,,2013-04-23 06:12:00,
2013-04-23 02:21:00,46.0,36.0,30.31,NNE,32,0.0,0.0,67,0.00,,,0.00,,2013-04-23 06:21:00,
2013-04-23 02:33:00,46.0,36.0,30.30,NNE,32,0.0,0.0,68,0.00,,,0.00,,2013-04-23 06:33:00,
2013-04-23 02:42:00,46.0,36.0,30.30,NNE,32,0.0,0.0,68,0.00,,,0.00,,2013-04-23 06:42:00,
2013-04-23 02:52:00,46.0,37.0,30.29,NNE,32,0.0,0.0,70,0.00,,,0.00,,2013-04-23 06:52:00,
2013-04-23 03:02:00,47.0,38.0,30.29,NE,34,1.0,5.0,71,0.00,,,0.00,,2013-04-23 07:02:00,
2013-04-23 03:11:00,47.0,38.0,30.29,NE,34,1.0,5.0,71,0.00,,,0.00,,2013-04-23 07:11:00,
2013-04-23 03:22:00,47.0,38.0,30.29,ENE,78,1.0,3.0,70,0.00,,,0.00,,2013-04-23 07:22:00,
2013-04-23 03:32:00,47.0,38.0,30.29,ENE,78,1.0,1.0,72,0.00,,,0.00,,2013-04-23 07:32:00,
2013-04-23 03:42:00,47.0,38.0,30.29,ENE,78,1.0,1.0,72,0.00,,,0.00,,2013-04-23 07:42:00,
2013-04-23 03:52:00,47.0,38.0,30.29,ENE,78,0.0,1.0,72,0.00,,,0.00,,2013-04-23 07:52:00,
2013-04-23 04:02:00,47.0,38.0,30.28,NE,51,2.0,7.0,70,0.00,,,0.00,,2013-04-23 08:02:00,
2013-04-23 04:11:00,47.0,38.0,30.28,NE,51,2.0,7.0,70,0.00,,,0.00,,2013-04-23 08:11:00,
2013-04-23 04:21:00,48.0,38.0,30.28,ENE,78,1.0,3.0,69,0.00,,,0.00,,2013-04-23 08:21:00,
2013-04-23 04:32:00,48.0,39.0,30.28,ENE,61,0.0,2.0,70,0.00,,,0.00,,2013-04-23 08:32:00,
2013-04-23 04:42:00,48.0,39.0,30.28,ENE,61,0.0,2.0,70,0.00,,,0.00,,2013-04-23 08:42:00,
2013-04-23 04:52:00,47.0,38.0,30.29,North,9,1.0,2.0,71,0.00,,,0.00,,2013-04-23 08:52:00,
2013-04-23 05:02:00,46.0,37.0,30.28,North,5,0.0,2.0,71,0.00,,,0.00,,2013-04-23 09:02:00,
2013-04-23 05:11:00,46.0,37.0,30.28,North,5,0.0,2.0,71,0.00,,,0.00,,2013-04-23 09:11:00,
2013-04-23 05:21:00,46.0,38.0,30.28,North,5,0.0,0.0,73,0.00,,,0.00,,2013-04-23 09:21:00,
2013-04-23 05:33:00,45.0,38.0,30.27,North,5,0.0,0.0,77,0.00,,,0.00,,2013-04-23 09:33:00,
2013-04-23 05:43:00,45.0,38.0,30.27,North,5,0.0,0.0,77,0.00,,,0.00,,2013-04-23 09:43:00,
2013-04-23 05:53:00,45.0,38.0,30.27,North,5,0.0,0.0,76,0.00,,,0.00,,2013-04-23 09:53:00,
2013-04-23 06:03:00,45.0,38.0,30.27,North,5,0.0,0.0,76,0.00,,,0.00,,2013-04-23 10:03:00,
2013-04-23 06:13:00,45.0,38.0,30.27,North,5,0.0,0.0,76,0.00,,,0.00,,2013-04-23 10:13:00,
2013-04-23 06:23:00,45.0,38.0,30.27,North,5,0.0,0.0,77,0.00,,,0.00,,2013-04-23 10:23:00,
2013-04-23 06:33:00,45.0,39.0,30.27,North,5,0.0,0.0,80,0.00,,,0.00,,2013-04-23 10:33:00,
2013-04-23 06:42:00,45.0,39.0,30.27,North,5,0.0,0.0,80,0.00,,,0.00,,2013-04-23 10:42:00,
2013-04-23 06:52:00,45.0,40.0,30.27,North,5,0.0,0.0,82,0.00,,,0.00,,2013-04-23 10:52:00,
2013-04-23 07:03:00,45.0,39.0,30.27,North,5,0.0,0.0,78,0.00,,,0.00,,2013-04-23 11:03:00,
2013-04-23 07:12:00,45.0,39.0,30.27,North,5,0.0,0.0,79,0.00,,,0.00,,2013-04-23 11:12:00,
2013-04-23 07:21:00,45.0,39.0,30.27,North,5,0.0,0.0,79,0.00,,,0.00,,2013-04-23 11:21:00,
2013-04-23 07:32:00,45.0,39.0,30.27,North,5,0.0,0.0,78,0.00,,,0.00,,2013-04-23 11:32:00,
2013-04-23 07:42:00,46.0,39.0,30.28,North,5,0.0,0.0,77,0.00,,,0.00,,2013-04-23 11:42:00,
2013-04-23 07:53:00,46.0,39.0,30.28,North,5,0.0,0.0,77,0.00,,,0.00,,2013-04-23 11:53:00,
2013-04-23 08:02:00,46.0,39.0,30.28,North,5,0.0,0.0,75,0.00,,,0.00,,2013-04-23 12:02:00,
2013-04-23 08:12:00,46.0,39.0,30.28,North,5,0.0,0.0,75,0.00,,,0.00,,2013-04-23 12:12:00,
2013-04-23 08:22:00,47.0,39.0,30.28,North,5,0.0,0.0,73,0.00,,,0.00,,2013-04-23 12:22:00,
2013-04-23 08:32:00,47.0,38.0,30.28,WNW,294,1.0,2.0,70,0.00,,,0.00,,2013-04-23 12:32:00,
2013-04-23 08:42:00,47.0,38.0,30.28,WNW,294,1.0,2.0,70,0.00,,,0.00,,2013-04-23 12:42:00,
2013-04-23 08:52:00,48.0,40.0,30.27,West,259,0.0,3.0,73,0.00,,,0.00,,2013-04-23 12:52:00,
2013-04-23 09:01:00,49.0,40.0,30.28,SSE,161,1.0,2.0,70,0.00,,,0.00,,2013-04-23 13:01:00,
2013-04-23 09:11:00,49.0,40.0,30.28,SSE,161,1.0,2.0,70,0.00,,,0.00,,2013-04-23 13:11:00,
2013-04-23 09:22:00,50.0,40.0,30.29,NNE,31,1.0,3.0,69,0.00,,,0.00,,2013-04-23 13:22:00,
2013-04-23 09:32:00,50.0,40.0,30.29,SW,217,1.0,3.0,69,0.00,,,0.00,,2013-04-23 13:32:00,
2013-04-23 09:42:00,50.0,40.0,30.29,SW,217,1.0,3.0,69,0.00,,,0.00,,2013-04-23 13:42:00,
2013-04-23 09:52:00,50.0,40.0,30.29,SE,146,1.0,5.0,68,0.00,,,0.00,,2013-04-23 13:52:00,
2013-04-23 10:02:00,51.0,40.0,30.30,West,267,2.0,5.0,67,0.00,,,0.00,,2013-04-23 14:02:00,
2013-04-23 10:11:00,51.0,40.0,30.30,West,267,2.0,5.0,67,0.00,,,0.00,,2013-04-23 14:11:00,
2013-04-23 10:22:00,52.0,42.0,30.29,West,268,2.0,4.0,68,0.00,,,0.00,,2013-04-23 14:22:00,
2013-04-23 10:32:00,53.0,41.0,30.29,SE,134,2.0,5.0,64,0.00,,,0.00,,2013-04-23 14:32:00,
2013-04-23 10:42:00,53.0,41.0,30.29,SE,134,2.0,5.0,64,0.00,,,0.00,,2013-04-23 14:42:00,
2013-04-23 10:52:00,54.0,43.0,30.28,ESE,116,3.0,6.0,65,0.00,,,0.00,,2013-04-23 14:52:00,
2013-04-23 11:01:00,54.0,43.0,30.28,ESE,116,3.0,6.0,65,0.00,,,0.00,,2013-04-23 15:01:00,
2013-04-23 11:12:00,55.0,42.0,30.28,SSE,161,3.0,5.0,62,0.00,,,0.00,,2013-04-23 15:12:00,
2013-04-23 11:22:00,56.0,42.0,30.30,North,360,1.0,4.0,60,0.00,,,0.00,,2013-04-23 15:22:00,
2013-04-23 11:32:00,56.0,43.0,30.29,NW,307,2.0,7.0,61,0.00,,,0.00,,2013-04-23 15:32:00,
2013-04-23 11:42:00,56.0,43.0,30.29,NW,307,2.0,7.0,61,0.00,,,0.00,,2013-04-23 15:42:00,
2013-04-23 11:53:00,57.0,44.0,30.28,East,92,2.0,5.0,61,0.00,,,0.00,,2013-04-23 15:53:00,
2013-04-23 12:03:00,59.0,45.0,30.26,NNE,26,2.0,4.0,59,0.00,,,0.00,,2013-04-23 16:03:00,
2013-04-23 12:12:00,59.0,45.0,30.26,NNE,26,2.0,4.0,59,0.00,,,0.00,,2013-04-23 16:12:00,
2013-04-23 12:23:00,59.0,45.0,30.26,SE,144,1.0,5.0,59,0.00,,,0.00,,2013-04-23 16:23:00,
2013-04-23 12:34:00,59.0,45.0,30.25,SW,230,2.0,9.0,59,0.00,,,0.00,,2013-04-23 16:34:00,
2013-04-23 12:43:00,59.0,45.0,30.25,SW,230,2.0,9.0,59,0.00,,,0.00,,2013-04-23 16:43:00,
2013-04-23 12:53:00,60.0,47.0,30.25,South,174,3.0,7.0,61,0.00,,,0.00,,2013-04-23 16:53:00,
2013-04-23 13:02:00,60.0,46.0,30.24,South,173,6.0,10.0,60,0.00,,,0.00,,2013-04-23 17:02:00,
2013-04-23 13:12:00,60.0,46.0,30.24,South,173,6.0,10.0,60,0.00,,,0.00,,2013-04-23 17:12:00,
2013-04-23 13:22:00,61.0,47.0,30.23,SW,218,4.0,7.0,59,0.00,,,0.00,,2013-04-23 17:22:00,
2013-04-23 13:32:00,61.0,47.0,30.22,WSW,252,5.0,8.0,59,0.00,,,0.00,,2013-04-23 17:32:00,
2013-04-23 13:42:00,61.0,47.0,30.22,WSW,252,5.0,8.0,59,0.00,,,0.00,,2013-04-23 17:42:00,
2013-04-23 13:53:00,63.0,49.0,30.22,SSE,155,3.0,5.0,60,0.00,,,0.00,,2013-04-23 17:53:00,
2013-04-23 14:02:00,63.0,48.0,30.21,South,169,5.0,10.0,58,0.00,,,0.00,,2013-04-23 18:02:00,
2013-04-23 14:12:00,63.0,48.0,30.21,South,169,5.0,10.0,58,0.00,,,0.00,,2013-04-23 18:12:00,
2013-04-23 14:22:00,63.0,48.0,30.21,West,273,5.0,9.0,57,0.00,,,0.00,,2013-04-23 18:22:00,
2013-04-23 14:32:00,64.0,48.0,30.20,SSW,192,4.0,8.0,56,0.00,,,0.00,,2013-04-23 18:32:00,
2013-04-23 14:42:00,64.0,48.0,30.20,SSW,192,4.0,8.0,56,0.00,,,0.00,,2013-04-23 18:42:00,
2013-04-23 14:52:00,64.0,48.0,30.19,South,188,2.0,8.0,56,0.00,,,0.00,,2013-04-23 18:52:00,
2013-04-23 15:02:00,65.0,47.0,30.19,SSW,200,2.0,5.0,53,0.00,,,0.00,,2013-04-23 19:02:00,
2013-04-23 15:11:00,65.0,47.0,30.19,SSW,200,2.0,5.0,53,0.00,,,0.00,,2013-04-23 19:11:00,
2013-04-23 15:22:00,65.0,48.0,30.18,ESE,103,3.0,7.0,54,0.00,,,0.00,,2013-04-23 19:22:00,
2013-04-23 15:32:00,66.0,47.0,30.17,SW,234,5.0,8.0,51,0.00,,,0.00,,2013-04-23 19:32:00,
2013-04-23 15:42:00,66.0,47.0,30.17,SW,234,5.0,8.0,51,0.00,,,0.00,,2013-04-23 19:42:00,
2013-04-23 15:52:00,67.0,48.0,30.16,East,94,6.0,10.0,51,0.00,,,0.00,,2013-04-23 19:52:00,
2013-04-23 16:02:00,67.0,49.0,30.16,ESE,123,4.0,8.0,52,0.00,,,0.00,,2013-04-23 20:02:00,
2013-04-23 16:11:00,67.0,49.0,30.16,ESE,123,4.0,8.0,52,0.00,,,0.00,,2013-04-23 20:11:00,
2013-04-23 16:22:00,67.0,47.0,30.15,East,86,4.0,8.0,49,0.00,,,0.00,,2013-04-23 20:22:00,
2013-04-23 16:32:00,68.0,50.0,30.15,WSW,253,3.0,10.0,53,0.00,,,0.00,,2013-04-23 20:32:00,
2013-04-23 16:42:00,68.0,50.0,30.15,WSW,253,3.0,10.0,53,0.00,,,0.00,,2013-04-23 20:42:00,
2013-04-23 16:52:00,68.0,48.0,30.14,WSW,240,6.0,10.0,49,0.00,,,0.00,,2013-04-23 20:52:00,
2013-04-23 17:02:00,68.0,48.0,30.14,SW,223,4.0,9.0,48,0.00,,,0.00,,2013-04-23 21:02:00,
2013-04-23 17:12:00,68.0,48.0,30.14,SW,223,4.0,9.0,48,0.00,,,0.00,,2013-04-23 21:12:00,
2013-04-23 17:22:00,68.0,48.0,30.14,SW,219,6.0,10.0,48,0.00,,,0.00,,2013-04-23 21:22:00,
2013-04-23 17:33:00,68.0,48.0,30.13,WSW,254,3.0,9.0,49,0.00,,,0.00,,2013-04-23 21:33:00,
2013-04-23 17:43:00,68.0,48.0,30.13,WSW,254,3.0,9.0,49,0.00,,,0.00,,2013-04-23 21:43:00,
2013-04-23 17:53:00,68.0,48.0,30.13,SW,222,6.0,9.0,48,0.00,,,0.00,,2013-04-23 21:53:00,
2013-04-23 18:03:00,67.0,47.0,30.12,SSE,161,2.0,7.0,49,0.00,,,0.00,,2013-04-23 22:03:00,
2013-04-23 18:12:00,67.0,47.0,30.12,SSE,161,2.0,7.0,49,0.00,,,0.00,,2013-04-23 22:12:00,
2013-04-23 18:23:00,68.0,48.0,30.13,WSW,245,4.0,10.0,48,0.00,,,0.00,,2013-04-23 22:23:00,
2013-04-23 18:33:00,67.0,47.0,30.13,SSW,196,5.0,8.0,49,0.00,,,0.00,,2013-04-23 22:33:00,
2013-04-23 18:42:00,67.0,47.0,30.13,SSW,196,5.0,8.0,49,0.00,,,0.00,,2013-04-23 22:42:00,
2013-04-23 18:52:00,67.0,48.0,30.13,SSW,212,5.0,8.0,50,0.00,,,0.00,,2013-04-23 22:52:00,
2013-04-23 19:03:00,67.0,47.0,30.13,SSE,167,4.0,7.0,49,0.00,,,0.00,,2013-04-23 23:03:00,
2013-04-23 19:12:00,67.0,47.0,30.13,SSE,167,4.0,7.0,49,0.00,,,0.00,,2013-04-23 23:12:00,
2013-04-23 19:22:00,67.0,48.0,30.13,SE,131,2.0,8.0,50,0.00,,,0.00,,2013-04-23 23:22:00,
2013-04-23 19:32:00,66.0,48.0,30.14,SSE,148,4.0,7.0,52,0.00,,,0.00,,2013-04-23 23:32:00,
2013-04-23 19:42:00,65.0,48.0,30.14,SSW,209,3.0,7.0,54,0.00,,,0.00,,2013-04-23 23:42:00,
2013-04-23 19:52:00,65.0,48.0,30.14,SSW,209,3.0,7.0,54,0.00,,,0.00,,2013-04-23 23:52:00,
2013-04-23 20:01:00,65.0,49.0,30.14,South,191,2.0,4.0,56,0.00,,,0.00,,2013-04-24 00:01:00,
2013-04-23 20:11:00,65.0,49.0,30.14,South,191,2.0,4.0,56,0.00,,,0.00,,2013-04-24 00:11:00,
2013-04-23 20:22:00,64.0,49.0,30.14,South,179,1.0,3.0,58,0.00,,,0.00,,2013-04-24 00:22:00,
2013-04-23 20:32:00,63.0,49.0,30.14,SE,146,1.0,3.0,60,0.00,,,0.00,,2013-04-24 00:32:00,
2013-04-23 20:42:00,63.0,49.0,30.14,SE,146,1.0,3.0,60,0.00,,,0.00,,2013-04-24 00:42:00,
2013-04-23 20:52:00,62.0,49.0,30.14,SSE,157,2.0,4.0,62,0.00,,,0.00,,2013-04-24 00:52:00,
2013-04-23 21:02:00,62.0,49.0,30.14,SE,138,2.0,5.0,63,0.00,,,0.00,,2013-04-24 01:02:00,
2013-04-23 21:11:00,62.0,49.0,30.14,SE,138,2.0,5.0,63,0.00,,,0.00,,2013-04-24 01:11:00,
2013-04-23 21:21:00,61.0,49.0,30.14,SSE,150,1.0,3.0,65,0.00,,,0.00,,2013-04-24 01:21:00,
2013-04-23 21:32:00,60.0,49.0,30.14,SSE,149,2.0,4.0,66,0.00,,,0.00,,2013-04-24 01:32:00,
2013-04-23 21:42:00,60.0,49.0,30.14,SSE,149,2.0,4.0,66,0.00,,,0.00,,2013-04-24 01:42:00,
2013-04-23 21:52:00,60.0,49.0,30.15,SSE,163,1.0,3.0,67,0.00,,,0.00,,2013-04-24 01:52:00,
2013-04-23 22:02:00,59.0,49.0,30.15,South,185,1.0,4.0,69,0.00,,,0.00,,2013-04-24 02:02:00,
2013-04-23 22:18:00,59.0,49.0,30.15,South,185,1.0,4.0,69,0.00,,,0.00,,2013-04-24 02:18:00,
2013-04-23 22:30:00,59.0,50.0,30.16,SSW,207,1.0,3.0,71,0.00,,,0.00,,2013-04-24 02:30:00,
2013-04-23 22:40:00,58.0,49.0,30.15,South,178,1.0,2.0,73,0.00,,,0.00,,2013-04-24 02:40:00,
2013-04-23 22:48:00,58.0,49.0,30.15,South,178,1.0,2.0,73,0.00,,,0.00,,2013-04-24 02:48:00,
2013-04-23 23:01:00,58.0,50.0,30.15,SSW,199,1.0,3.0,75,0.00,,,0.00,,2013-04-24 03:01:00,
2013-04-23 23:10:00,57.0,50.0,30.15,South,190,1.0,3.0,76,0.00,,,0.00,,2013-04-24 03:10:00,
2013-04-23 23:18:00,57.0,50.0,30.15,South,190,1.0,3.0,76,0.00,,,0.00,,2013-04-24 03:18:00,
2013-04-23 23:30:00,57.0,50.0,30.15,South,190,2.0,4.0,77,0.00,,,0.00,,2013-04-24 03:30:00,
2013-04-23 23:41:00,56.0,50.0,30.15,SW,217,1.0,3.0,79,0.00,,,0.00,,2013-04-24 03:41:00,
2013-04-23 23:51:00,56.0,50.0,30.15,SW,217,1.0,3.0,79,0.00,,,0.00,,2013-04-24 03:51:00,